^^
Your Local Weather - Clay, NY Station Historical Data
Daily Summary for January 14, 2018 Units:  Both    English   Metric
« Previous Day
Next Day »
Daily Weekly Monthly Yearly Custom
  High: Low: Average:
Temperature: 13.3 °F /  -10.4 °C -16.2 °F /  -26.8 °C -2.1 °F /  -18.9 °C
Dew Point: 10.7 °F /  -11.8 °C -20.5 °F /  -29.2 °C -5.6 °F /  -20.9 °C
Humidity: 89% 80% 85%
Wind Speed: 2.0mph /  3.2km/h - 0.2mph /  0.3km/h
Wind Gust: 5.0mph /  8km/h - -
Wind- - SW
Pressure: 30.76 in /  1041.5 hPa 30.53 in /  1033.7 hPa -
Precipitation: 0.03 in /  0.76 mm    
Historical Graphs
 
 
Tabular Data for January 14, 2018
Time Temperature Dew Point Pressure Wind Wind Speed Wind Gust Humidity Rainfall Rate (Hourly) solar
00:02 -1.4 °F /  -18.6 °C -4.8 °F /  -20.4 °C 30.53in /  1033.7hPa Calm     85% 0.00in /  0mm 0 W/m2
00:08 -1.9 °F /  -18.8 °C -5.3 °F /  -20.7 °C 30.53in /  1033.7hPa Calm     85% 0.00in /  0mm 0 W/m2
00:14 -2.3 °F /  -19.1 °C -5.7 °F /  -20.9 °C 30.53in /  1033.7hPa Calm     85% 0.00in /  0mm 0 W/m2
00:19 -2.7 °F /  -19.3 °C -6.1 °F /  -21.2 °C 30.53in /  1033.7hPa Calm     85% 0.00in /  0mm 0 W/m2
00:26 -2.9 °F /  -19.4 °C -6.3 °F /  -21.3 °C 30.53in /  1033.7hPa Calm     85% 0.00in /  0mm 0 W/m2
00:36 -3.3 °F /  -19.6 °C -6.7 °F /  -21.5 °C 30.53in /  1033.7hPa Calm     85% 0.00in /  0mm 0 W/m2
00:48 -4.1 °F /  -20.1 °C -7.7 °F /  -22.1 °C 30.55in /  1034.4hPa Calm     84% 0.00in /  0mm 0 W/m2
00:54 -4.5 °F /  -20.3 °C -8.1 °F /  -22.3 °C 30.55in /  1034.4hPa Calm     84% 0.00in /  0mm 0 W/m2
01:00 -4.9 °F /  -20.5 °C -8.5 °F /  -22.5 °C 30.55in /  1034.4hPa Calm     84% 0.00in /  0mm 0 W/m2
01:12 -5.5 °F /  -20.8 °C -9.1 °F /  -22.8 °C 30.56in /  1034.8hPa Calm     84% 0.00in /  0mm 0 W/m2
01:18 -5.8 °F /  -21 °C -9.4 °F /  -23 °C 30.56in /  1034.8hPa Calm     84% 0.00in /  0mm 0 W/m2
01:24 -6.0 °F /  -21.1 °C -9.6 °F /  -23.1 °C 30.56in /  1034.8hPa Calm     84% 0.00in /  0mm 0 W/m2
01:30 -6.3 °F /  -21.3 °C -10.1 °F /  -23.4 °C 30.57in /  1035.1hPa Calm     83% 0.00in /  0mm 0 W/m2
01:36 -6.5 °F /  -21.4 °C -10.3 °F /  -23.5 °C 30.57in /  1035.1hPa Calm     83% 0.00in /  0mm 0 W/m2
01:42 -6.9 °F /  -21.6 °C -10.7 °F /  -23.7 °C 30.58in /  1035.4hPa Calm     83% 0.00in /  0mm 0 W/m2
01:48 -7.3 °F /  -21.8 °C -11.1 °F /  -23.9 °C 30.58in /  1035.4hPa Calm     83% 0.00in /  0mm 0 W/m2
01:54 -7.5 °F /  -21.9 °C -11.3 °F /  -24.1 °C 30.58in /  1035.4hPa Calm     83% 0.00in /  0mm 0 W/m2
02:00 -7.8 °F /  -22.1 °C -11.6 °F /  -24.2 °C 30.58in /  1035.4hPa Calm     83% 0.00in /  0mm 0 W/m2
02:06 -7.9 °F /  -22.2 °C -11.7 °F /  -24.3 °C 30.58in /  1035.4hPa Calm     83% 0.00in /  0mm 0 W/m2
02:12 -8.1 °F /  -22.3 °C -11.9 °F /  -24.4 °C 30.58in /  1035.4hPa Calm     83% 0.00in /  0mm 0 W/m2
02:18 -8.2 °F /  -22.3 °C -12.0 °F /  -24.4 °C 30.58in /  1035.4hPa Calm     83% 0.00in /  0mm 0 W/m2
02:24 -8.3 °F /  -22.4 °C -12.1 °F /  -24.5 °C 30.59in /  1035.8hPa Calm     83% 0.00in /  0mm 0 W/m2
02:30 -8.4 °F /  -22.4 °C -12.2 °F /  -24.6 °C 30.59in /  1035.8hPa Calm     83% 0.00in /  0mm 0 W/m2
02:36 -8.7 °F /  -22.6 °C -12.5 °F /  -24.7 °C 30.60in /  1036.1hPa Calm     83% 0.00in /  0mm 0 W/m2
02:42 -8.9 °F /  -22.7 °C -12.9 °F /  -24.9 °C 30.60in /  1036.1hPa Calm     82% 0.00in /  0mm 0 W/m2
02:48 -9.2 °F /  -22.9 °C -13.2 °F /  -25.1 °C 30.60in /  1036.1hPa Calm     82% 0.00in /  0mm 0 W/m2
02:54 -9.4 °F /  -23 °C -13.4 °F /  -25.2 °C 30.60in /  1036.1hPa Calm     82% 0.00in /  0mm 0 W/m2
03:00 -9.5 °F /  -23.1 °C -13.5 °F /  -25.3 °C 30.60in /  1036.1hPa Calm     82% 0.00in /  0mm 0 W/m2
03:06 -9.6 °F /  -23.1 °C -13.6 °F /  -25.3 °C 30.61in /  1036.5hPa Calm     82% 0.00in /  0mm 0 W/m2
03:16 -9.9 °F /  -23.3 °C -13.9 °F /  -25.5 °C 30.61in /  1036.5hPa Calm     82% 0.00in /  0mm 0 W/m2
03:22 -10.1 °F /  -23.4 °C -14.1 °F /  -25.6 °C 30.61in /  1036.5hPa Calm     82% 0.00in /  0mm 0 W/m2
03:28 -10.4 °F /  -23.6 °C -14.4 °F /  -25.8 °C 30.61in /  1036.5hPa Calm     82% 0.00in /  0mm 0 W/m2
03:34 -10.6 °F /  -23.7 °C -14.6 °F /  -25.9 °C 30.61in /  1036.5hPa Calm     82% 0.00in /  0mm 0 W/m2
03:40 -10.7 °F /  -23.7 °C -14.7 °F /  -25.9 °C 30.61in /  1036.5hPa Calm     82% 0.00in /  0mm 0 W/m2
03:46 -10.8 °F /  -23.8 °C -14.8 °F /  -26 °C 30.62in /  1036.8hPa Calm     82% 0.00in /  0mm 0 W/m2
03:52 -10.8 °F /  -23.8 °C -14.8 °F /  -26 °C 30.62in /  1036.8hPa Calm     82% 0.00in /  0mm 0 W/m2
03:58 -10.9 °F /  -23.8 °C -14.9 °F /  -26.1 °C 30.62in /  1036.8hPa Calm     82% 0.00in /  0mm 0 W/m2
04:04 -10.9 °F /  -23.8 °C -14.9 °F /  -26.1 °C 30.62in /  1036.8hPa Calm     82% 0.00in /  0mm 0 W/m2
04:16 -11.1 °F /  -23.9 °C -15.1 °F /  -26.2 °C 30.63in /  1037.1hPa Calm     82% 0.00in /  0mm 0 W/m2
04:28 -11.3 °F /  -24.1 °C -15.3 °F /  -26.3 °C 30.63in /  1037.1hPa Calm     82% 0.00in /  0mm 0 W/m2
04:34 -11.5 °F /  -24.2 °C -15.5 °F /  -26.4 °C 30.63in /  1037.1hPa Calm     82% 0.00in /  0mm 0 W/m2
04:40 -11.6 °F /  -24.2 °C -15.6 °F /  -26.4 °C 30.63in /  1037.1hPa Calm     82% 0.00in /  0mm 0 W/m2
04:46 -11.7 °F /  -24.3 °C -15.7 °F /  -26.5 °C 30.63in /  1037.1hPa Calm     82% 0.00in /  0mm 0 W/m2
04:52 -11.8 °F /  -24.3 °C -15.8 °F /  -26.6 °C 30.63in /  1037.1hPa Calm     82% 0.00in /  0mm 0 W/m2
04:58 -11.9 °F /  -24.4 °C -16.1 °F /  -26.7 °C 30.63in /  1037.1hPa Calm     81% 0.00in /  0mm 0 W/m2
05:08 -12.1 °F /  -24.5 °C -16.3 °F /  -26.8 °C 30.64in /  1037.5hPa Calm     81% 0.00in /  0mm 0 W/m2
05:14 -12.2 °F /  -24.6 °C -16.4 °F /  -26.9 °C 30.64in /  1037.5hPa Calm     81% 0.00in /  0mm 0 W/m2
05:20 -12.5 °F /  -24.7 °C -16.7 °F /  -27.1 °C 30.65in /  1037.8hPa Calm     81% 0.00in /  0mm 0 W/m2
05:26 -12.8 °F /  -24.9 °C -17.0 °F /  -27.2 °C 30.65in /  1037.8hPa Calm     81% 0.00in /  0mm 0 W/m2
05:38 -13.3 °F /  -25.2 °C -17.5 °F /  -27.5 °C 30.65in /  1037.8hPa Calm     81% 0.00in /  0mm 0 W/m2
05:44 -13.6 °F /  -25.3 °C -17.8 °F /  -27.7 °C 30.65in /  1037.8hPa Calm     81% 0.00in /  0mm 0 W/m2
05:50 -13.8 °F /  -25.4 °C -18.0 °F /  -27.8 °C 30.65in /  1037.8hPa Calm     81% 0.00in /  0mm 0 W/m2
05:56 -14.0 °F /  -25.6 °C -18.1 °F /  -27.8 °C 30.66in /  1038.1hPa Calm     81% 0.00in /  0mm 0 W/m2
06:02 -14.0 °F /  -25.6 °C -18.1 °F /  -27.8 °C 30.66in /  1038.1hPa Calm     81% 0.00in /  0mm 0 W/m2
06:08 -14.1 °F /  -25.6 °C -18.2 °F /  -27.9 °C 30.66in /  1038.1hPa Calm     81% 0.00in /  0mm 0 W/m2
06:14 -14.1 °F /  -25.6 °C -18.2 °F /  -27.9 °C 30.66in /  1038.1hPa Calm     81% 0.00in /  0mm 0 W/m2
06:20 -14.2 °F /  -25.7 °C -18.3 °F /  -27.9 °C 30.66in /  1038.1hPa Calm     81% 0.00in /  0mm 0 W/m2
06:40 -14.8 °F /  -26 °C -19.2 °F /  -28.4 °C 30.67in /  1038.5hPa Calm     80% 0.00in /  0mm 0 W/m2
06:46 -15.0 °F /  -26.1 °C -19.4 °F /  -28.6 °C 30.68in /  1038.8hPa Calm     80% 0.00in /  0mm 0 W/m2
06:56 -15.3 °F /  -26.3 °C -19.7 °F /  -28.7 °C 30.68in /  1038.8hPa Calm     80% 0.00in /  0mm 0 W/m2
07:02 -15.5 °F /  -26.4 °C -19.9 °F /  -28.8 °C 30.68in /  1038.8hPa Calm     80% 0.00in /  0mm 0 W/m2
07:10 -15.7 °F /  -26.5 °C -20.1 °F /  -28.9 °C 30.68in /  1038.8hPa Calm     80% 0.00in /  0mm 0 W/m2
07:16 -15.9 °F /  -26.6 °C -20.2 °F /  -29 °C 30.68in /  1038.8hPa Calm     80% 0.00in /  0mm 0 W/m2
07:22 -16.1 °F /  -26.7 °C -20.4 °F /  -29.1 °C 30.68in /  1038.8hPa Calm     80% 0.00in /  0mm 0 W/m2
07:28 -16.1 °F /  -26.7 °C -20.4 °F /  -29.1 °C 30.69in /  1039.2hPa Calm     80% 0.00in /  0mm 0 W/m2
07:34 -16.2 °F /  -26.8 °C -20.5 °F /  -29.2 °C 30.69in /  1039.2hPa Calm     80% 0.00in /  0mm 0 W/m2
07:40 -16.2 °F /  -26.8 °C -20.5 °F /  -29.2 °C 30.69in /  1039.2hPa Calm     80% 0.00in /  0mm 5 W/m2
07:46 -16.1 °F /  -26.7 °C -20.4 °F /  -29.1 °C 30.69in /  1039.2hPa Calm     80% 0.00in /  0mm 7 W/m2
07:52 -16.1 °F /  -26.7 °C -20.4 °F /  -29.1 °C 30.69in /  1039.2hPa Calm     80% 0.00in /  0mm 7 W/m2
07:58 -16.0 °F /  -26.7 °C -20.3 °F /  -29.1 °C 30.69in /  1039.2hPa Calm     80% 0.00in /  0mm 11 W/m2
08:04 -16.0 °F /  -26.7 °C -20.3 °F /  -29.1 °C 30.70in /  1039.5hPa Calm     80% 0.00in /  0mm 11 W/m2
08:10 -16.1 °F /  -26.7 °C -20.4 °F /  -29.1 °C 30.70in /  1039.5hPa Calm     80% 0.00in /  0mm 12 W/m2
08:16 -16.1 °F /  -26.7 °C -20.4 °F /  -29.1 °C 30.71in /  1039.8hPa Calm     80% 0.00in /  0mm 14 W/m2
08:26 -15.9 °F /  -26.6 °C -20.2 °F /  -29 °C 30.71in /  1039.8hPa Calm     80% 0.00in /  0mm 18 W/m2
08:32 -15.5 °F /  -26.4 °C -19.9 °F /  -28.8 °C 30.71in /  1039.8hPa Calm     80% 0.00in /  0mm 76 W/m2
08:38 -15.1 °F /  -26.2 °C -19.2 °F /  -28.4 °C 30.72in /  1040.2hPa Calm     81% 0.00in /  0mm 90 W/m2
08:44 -14.4 °F /  -25.8 °C -18.5 °F /  -28.1 °C 30.72in /  1040.2hPa Calm     81% 0.00in /  0mm 100 W/m2
08:50 -13.4 °F /  -25.2 °C -17.6 °F /  -27.6 °C 30.73in /  1040.5hPa Calm     81% 0.00in /  0mm 109 W/m2
08:58 -11.6 °F /  -24.2 °C -15.6 °F /  -26.4 °C 30.73in /  1040.5hPa Calm     82% 0.00in /  0mm 120 W/m2
09:04 -10.3 °F /  -23.5 °C -14.3 °F /  -25.7 °C 30.73in /  1040.5hPa Calm     82% 0.00in /  0mm 125 W/m2
09:14 -8.2 °F /  -22.3 °C -12.0 °F /  -24.4 °C 30.74in /  1040.9hPa Calm     83% 0.00in /  0mm 137 W/m2
09:20 -6.9 °F /  -21.6 °C -10.5 °F /  -23.6 °C 30.74in /  1040.9hPa Calm     84% 0.00in /  0mm 144 W/m2
09:26 -5.1 °F /  -20.6 °C -8.7 °F /  -22.6 °C 30.74in /  1040.9hPa Calm     84% 0.00in /  0mm 151 W/m2
09:32 -3.4 °F /  -19.7 °C -6.8 °F /  -21.6 °C 30.74in /  1040.9hPa Calm     85% 0.00in /  0mm 160 W/m2
09:44 -0.9 °F /  -18.3 °C -4.1 °F /  -20.1 °C 30.74in /  1040.9hPa ENE 1.0mph /  1.6km/h 2.0mph /  3.2km/h 86% 0.00in /  0mm 174 W/m2
09:50 0.0 °F /  -17.8 °C -3.2 °F /  -19.6 °C 30.75in /  1041.2hPa Calm     86% 0.00in /  0mm 181 W/m2
09:56 1.0 °F /  -17.2 °C -2.2 °F /  -19 °C 30.75in /  1041.2hPa Calm     86% 0.00in /  0mm 186 W/m2
10:02 2.3 °F /  -16.5 °C -0.7 °F /  -18.2 °C 30.76in /  1041.5hPa Calm     87% 0.00in /  0mm 193 W/m2
10:08 2.7 °F /  -16.3 °C -0.5 °F /  -18.1 °C 30.76in /  1041.5hPa Calm     86% 0.00in /  0mm 199 W/m2
10:14 2.9 °F /  -16.2 °C -0.3 °F /  -17.9 °C 30.76in /  1041.5hPa Calm     86% 0.00in /  0mm 204 W/m2
10:20 3.8 °F /  -15.7 °C 0.8 °F /  -17.3 °C 30.76in /  1041.5hPa Calm     87% 0.00in /  0mm 209 W/m2
10:32 4.7 °F /  -15.2 °C 1.7 °F /  -16.8 °C 30.76in /  1041.5hPa SE 1.0mph /  1.6km/h 2.0mph /  3.2km/h 87% 0.00in /  0mm 220 W/m2
10:44 4.9 °F /  -15.1 °C 1.9 °F /  -16.7 °C 30.76in /  1041.5hPa ESE 1.0mph /  1.6km/h 2.0mph /  3.2km/h 87% 0.00in /  0mm 229 W/m2
10:50 4.9 °F /  -15.1 °C 1.9 °F /  -16.7 °C 30.76in /  1041.5hPa ENE 2.0mph /  3.2km/h 2.0mph /  3.2km/h 87% 0.00in /  0mm 236 W/m2
10:56 4.8 °F /  -15.1 °C 1.5 °F /  -16.9 °C 30.76in /  1041.5hPa ESE 2.0mph /  3.2km/h 3.0mph /  4.8km/h 86% 0.00in /  0mm 239 W/m2
11:02 5.1 °F /  -14.9 °C 2.1 °F /  -16.6 °C 30.76in /  1041.5hPa SE 1.0mph /  1.6km/h 5.0mph /  8km/h 87% 0.00in /  0mm 244 W/m2
11:08 5.5 °F /  -14.7 °C 2.5 °F /  -16.4 °C 30.76in /  1041.5hPa SE 2.0mph /  3.2km/h 5.0mph /  8km/h 87% 0.00in /  0mm 248 W/m2
11:14 5.5 °F /  -14.7 °C 2.5 °F /  -16.4 °C 30.76in /  1041.5hPa ENE 2.0mph /  3.2km/h 2.0mph /  3.2km/h 87% 0.00in /  0mm 251 W/m2
11:20 5.6 °F /  -14.7 °C 2.6 °F /  -16.3 °C 30.76in /  1041.5hPa ESE 2.0mph /  3.2km/h 3.0mph /  4.8km/h 87% 0.00in /  0mm 253 W/m2
11:26 6.0 °F /  -14.4 °C 3.0 °F /  -16.1 °C 30.75in /  1041.2hPa SE 1.0mph /  1.6km/h 3.0mph /  4.8km/h 87% 0.00in /  0mm 257 W/m2
11:38 7.1 °F /  -13.8 °C 4.3 °F /  -15.4 °C 30.75in /  1041.2hPa SE 1.0mph /  1.6km/h 3.0mph /  4.8km/h 88% 0.00in /  0mm 260 W/m2
11:44 7.5 °F /  -13.6 °C 4.7 °F /  -15.2 °C 30.74in /  1040.9hPa SE 1.0mph /  1.6km/h 3.0mph /  4.8km/h 88% 0.00in /  0mm 262 W/m2
11:50 7.9 °F /  -13.4 °C 5.1 °F /  -14.9 °C 30.74in /  1040.9hPa SE 2.0mph /  3.2km/h 2.0mph /  3.2km/h 88% 0.00in /  0mm 264 W/m2
11:56 7.9 °F /  -13.4 °C 5.1 °F /  -14.9 °C 30.74in /  1040.9hPa SE 1.0mph /  1.6km/h 2.0mph /  3.2km/h 88% 0.00in /  0mm 265 W/m2
12:02 8.3 °F /  -13.2 °C 5.5 °F /  -14.7 °C 30.74in /  1040.9hPa SE 1.0mph /  1.6km/h 2.0mph /  3.2km/h 88% 0.00in /  0mm 267 W/m2
12:08 8.9 °F /  -12.8 °C 6.1 °F /  -14.4 °C 30.74in /  1040.9hPa Calm   2.0mph /  3.2km/h 88% 0.00in /  0mm 276 W/m2
12:14 9.8 °F /  -12.3 °C 7.0 °F /  -13.9 °C 30.74in /  1040.9hPa Calm     88% 0.00in /  0mm 295 W/m2
12:20 10.4 °F /  -12 °C 7.6 °F /  -13.6 °C 30.74in /  1040.9hPa Calm     88% 0.00in /  0mm 483 W/m2
12:26 10.6 °F /  -11.9 °C 8.0 °F /  -13.3 °C 30.74in /  1040.9hPa Calm   1.0mph /  1.6km/h 89% 0.00in /  0mm 513 W/m2
12:40 10.0 °F /  -12.2 °C 7.2 °F /  -13.8 °C 30.73in /  1040.5hPa Calm     88% 0.00in /  0mm 506 W/m2
12:46 10.0 °F /  -12.2 °C 7.2 °F /  -13.8 °C 30.73in /  1040.5hPa Calm     88% 0.00in /  0mm 503 W/m2
12:52 10.6 °F /  -11.9 °C 7.7 °F /  -13.5 °C 30.73in /  1040.5hPa Calm   1.0mph /  1.6km/h 88% 0.00in /  0mm 503 W/m2
12:58 10.9 °F /  -11.7 °C 8.0 °F /  -13.3 °C 30.73in /  1040.5hPa Calm   1.0mph /  1.6km/h 88% 0.00in /  0mm 496 W/m2
13:04 11.1 °F /  -11.6 °C 8.2 °F /  -13.2 °C 30.73in /  1040.5hPa East 1.0mph /  1.6km/h 3.0mph /  4.8km/h 88% 0.14in /  3.56mm 497 W/m2
13:10 11.1 °F /  -11.6 °C 8.2 °F /  -13.2 °C 30.73in /  1040.5hPa NNW 1.0mph /  1.6km/h 1.0mph /  1.6km/h 88% 0.06in /  1.52mm 496 W/m2
13:16 11.1 °F /  -11.6 °C 8.2 °F /  -13.2 °C 30.73in /  1040.5hPa NNW 1.0mph /  1.6km/h 1.0mph /  1.6km/h 88% 0.04in /  1.02mm 503 W/m2
13:22 11.2 °F /  -11.6 °C 8.3 °F /  -13.2 °C 30.73in /  1040.5hPa NNW 1.0mph /  1.6km/h 1.0mph /  1.6km/h 88% 0.00in /  0mm 503 W/m2
13:28 11.6 °F /  -11.3 °C 8.7 °F /  -12.9 °C 30.73in /  1040.5hPa NNW 1.0mph /  1.6km/h 2.0mph /  3.2km/h 88% 0.00in /  0mm 496 W/m2
13:34 11.8 °F /  -11.2 °C 8.9 °F /  -12.8 °C 30.73in /  1040.5hPa NNW 1.0mph /  1.6km/h 2.0mph /  3.2km/h 88% 0.00in /  0mm 489 W/m2
13:40 11.9 °F /  -11.2 °C 9.0 °F /  -12.8 °C 30.73in /  1040.5hPa NNW 1.0mph /  1.6km/h 1.0mph /  1.6km/h 88% 0.00in /  0mm 482 W/m2
13:46 11.9 °F /  -11.2 °C 9.0 °F /  -12.8 °C 30.72in /  1040.2hPa Calm   1.0mph /  1.6km/h 88% 0.00in /  0mm 469 W/m2
13:52 12.2 °F /  -11 °C 9.3 °F /  -12.6 °C 30.72in /  1040.2hPa Calm   1.0mph /  1.6km/h 88% 0.00in /  0mm 457 W/m2
13:58 12.2 °F /  -11 °C 9.3 °F /  -12.6 °C 30.72in /  1040.2hPa Calm   1.0mph /  1.6km/h 88% 0.00in /  0mm 448 W/m2
14:04 12.1 °F /  -11.1 °C 9.2 °F /  -12.7 °C 30.72in /  1040.2hPa NNW 1.0mph /  1.6km/h 1.0mph /  1.6km/h 88% 0.00in /  0mm 436 W/m2
14:10 11.8 °F /  -11.2 °C 8.9 °F /  -12.8 °C 30.72in /  1040.2hPa NNW 1.0mph /  1.6km/h 1.0mph /  1.6km/h 88% 0.00in /  0mm 427 W/m2
14:16 11.7 °F /  -11.3 °C 8.8 °F /  -12.9 °C 30.73in /  1040.5hPa NNW 1.0mph /  1.6km/h 1.0mph /  1.6km/h 88% 0.00in /  0mm 417 W/m2
14:22 11.6 °F /  -11.3 °C 8.7 °F /  -12.9 °C 30.73in /  1040.5hPa NNW 1.0mph /  1.6km/h 1.0mph /  1.6km/h 88% 0.00in /  0mm 401 W/m2
14:30 11.8 °F /  -11.2 °C 8.9 °F /  -12.8 °C 30.72in /  1040.2hPa Calm     88% 0.00in /  0mm 381 W/m2
14:36 12.0 °F /  -11.1 °C 9.1 °F /  -12.7 °C 30.72in /  1040.2hPa NNW 1.0mph /  1.6km/h 1.0mph /  1.6km/h 88% 0.00in /  0mm 371 W/m2
14:42 12.2 °F /  -11 °C 9.3 °F /  -12.6 °C 30.72in /  1040.2hPa NNW 1.0mph /  1.6km/h 1.0mph /  1.6km/h 88% 0.00in /  0mm 359 W/m2
14:48 12.2 °F /  -11 °C 9.3 °F /  -12.6 °C 30.72in /  1040.2hPa Calm   1.0mph /  1.6km/h 88% 0.00in /  0mm 345 W/m2
14:54 12.3 °F /  -10.9 °C 9.4 °F /  -12.6 °C 30.72in /  1040.2hPa Calm     88% 0.00in /  0mm 332 W/m2
15:00 12.7 °F /  -10.7 °C 9.8 °F /  -12.3 °C 30.72in /  1040.2hPa West 1.0mph /  1.6km/h 1.0mph /  1.6km/h 88% 0.00in /  0mm 318 W/m2
15:06 12.7 °F /  -10.7 °C 9.8 °F /  -12.3 °C 30.73in /  1040.5hPa West 1.0mph /  1.6km/h 1.0mph /  1.6km/h 88% 0.00in /  0mm 301 W/m2
15:12 12.8 °F /  -10.7 °C 9.9 °F /  -12.3 °C 30.73in /  1040.5hPa Calm     88% 0.00in /  0mm 287 W/m2
15:18 13.3 °F /  -10.4 °C 10.7 °F /  -11.8 °C 30.73in /  1040.5hPa Calm   3.0mph /  4.8km/h 89% 0.00in /  0mm 269 W/m2
15:24 13.2 °F /  -10.4 °C 10.6 °F /  -11.9 °C 30.73in /  1040.5hPa West 1.0mph /  1.6km/h 1.0mph /  1.6km/h 89% 0.00in /  0mm 253 W/m2
15:30 12.9 °F /  -10.6 °C 10.0 °F /  -12.2 °C 30.73in /  1040.5hPa Calm     88% 0.00in /  0mm 237 W/m2
15:40 12.6 °F /  -10.8 °C 9.7 °F /  -12.4 °C 30.73in /  1040.5hPa Calm     88% 0.00in /  0mm 213 W/m2
15:46 12.3 °F /  -10.9 °C 9.4 °F /  -12.6 °C 30.73in /  1040.5hPa Calm   1.0mph /  1.6km/h 88% 0.00in /  0mm 181 W/m2
15:52 12.3 °F /  -10.9 °C 9.4 °F /  -12.6 °C 30.73in /  1040.5hPa Calm     88% 0.00in /  0mm 178 W/m2
15:58 12.3 °F /  -10.9 °C 9.4 °F /  -12.6 °C 30.73in /  1040.5hPa Calm   1.0mph /  1.6km/h 88% 0.00in /  0mm 144 W/m2
16:04 12.1 °F /  -11.1 °C 9.2 °F /  -12.7 °C 30.73in /  1040.5hPa Calm     88% 0.00in /  0mm 76 W/m2
16:12 11.6 °F /  -11.3 °C 8.7 °F /  -12.9 °C 30.72in /  1040.2hPa Calm     88% 0.00in /  0mm 107 W/m2
16:18 11.3 °F /  -11.5 °C 8.4 °F /  -13.1 °C 30.72in /  1040.2hPa Calm   3.0mph /  4.8km/h 88% 0.00in /  0mm 19 W/m2
16:24 10.9 °F /  -11.7 °C 8.0 °F /  -13.3 °C 30.73in /  1040.5hPa West 1.0mph /  1.6km/h 1.0mph /  1.6km/h 88% 0.00in /  0mm 18 W/m2
16:30 10.5 °F /  -11.9 °C 7.6 °F /  -13.6 °C 30.73in /  1040.5hPa Calm     88% 0.00in /  0mm 16 W/m2
16:36 10.1 °F /  -12.2 °C 7.3 °F /  -13.7 °C 30.73in /  1040.5hPa Calm     88% 0.00in /  0mm 12 W/m2
16:42 9.6 °F /  -12.4 °C 6.8 °F /  -14 °C 30.73in /  1040.5hPa Calm     88% 0.00in /  0mm 11 W/m2
16:48 9.0 °F /  -12.8 °C 6.2 °F /  -14.3 °C 30.73in /  1040.5hPa Calm     88% 0.00in /  0mm 7 W/m2
17:00 7.6 °F /  -13.6 °C 4.5 °F /  -15.3 °C 30.72in /  1040.2hPa Calm     87% 0.00in /  0mm 0 W/m2
17:06 7.0 °F /  -13.9 °C 3.9 °F /  -15.6 °C 30.73in /  1040.5hPa Calm     87% 0.00in /  0mm 0 W/m2
17:12 6.5 °F /  -14.2 °C 3.5 °F /  -15.8 °C 30.73in /  1040.5hPa Calm     87% 0.00in /  0mm 0 W/m2
17:24 5.3 °F /  -14.8 °C 2.3 °F /  -16.5 °C 30.73in /  1040.5hPa Calm     87% 0.00in /  0mm 0 W/m2
17:30 4.9 °F /  -15.1 °C 1.9 °F /  -16.7 °C 30.73in /  1040.5hPa Calm     87% 0.00in /  0mm 0 W/m2
17:36 4.6 °F /  -15.2 °C 1.6 °F /  -16.9 °C 30.73in /  1040.5hPa Calm     87% 0.00in /  0mm 0 W/m2
17:42 4.3 °F /  -15.4 °C 1.3 °F /  -17.1 °C 30.73in /  1040.5hPa Calm     87% 0.00in /  0mm 0 W/m2
17:48 3.8 °F /  -15.7 °C 0.8 °F /  -17.3 °C 30.74in /  1040.9hPa Calm     87% 0.00in /  0mm 0 W/m2
17:54 3.3 °F /  -15.9 °C 0.1 °F /  -17.7 °C 30.74in /  1040.9hPa Calm     86% 0.00in /  0mm 0 W/m2
18:00 2.9 °F /  -16.2 °C -0.3 °F /  -17.9 °C 30.73in /  1040.5hPa Calm     86% 0.00in /  0mm 0 W/m2
18:06 2.4 °F /  -16.4 °C -0.8 °F /  -18.2 °C 30.74in /  1040.9hPa Calm     86% 0.00in /  0mm 0 W/m2
18:12 1.9 °F /  -16.7 °C -1.3 °F /  -18.5 °C 30.74in /  1040.9hPa Calm     86% 0.00in /  0mm 0 W/m2
18:18 1.5 °F /  -16.9 °C -1.7 °F /  -18.7 °C 30.74in /  1040.9hPa Calm     86% 0.00in /  0mm 0 W/m2
18:24 1.1 °F /  -17.2 °C -2.1 °F /  -18.9 °C 30.74in /  1040.9hPa Calm     86% 0.00in /  0mm 0 W/m2
18:30 0.8 °F /  -17.3 °C -2.4 °F /  -19.1 °C 30.74in /  1040.9hPa Calm     86% 0.00in /  0mm 0 W/m2
18:36 0.5 °F /  -17.5 °C -2.7 °F /  -19.3 °C 30.74in /  1040.9hPa Calm     86% 0.00in /  0mm 0 W/m2
18:42 0.1 °F /  -17.7 °C -3.1 °F /  -19.5 °C 30.74in /  1040.9hPa Calm     86% 0.00in /  0mm 0 W/m2
18:48 -0.2 °F /  -17.9 °C -3.6 °F /  -19.8 °C 30.74in /  1040.9hPa Calm     85% 0.00in /  0mm 0 W/m2
18:54 -0.4 °F /  -18 °C -3.8 °F /  -19.9 °C 30.74in /  1040.9hPa Calm     85% 0.00in /  0mm 0 W/m2
19:00 -0.7 °F /  -18.2 °C -4.1 °F /  -20.1 °C 30.74in /  1040.9hPa Calm     85% 0.00in /  0mm 0 W/m2
19:06 -1.1 °F /  -18.4 °C -4.5 °F /  -20.3 °C 30.74in /  1040.9hPa Calm     85% 0.00in /  0mm 0 W/m2
19:12 -1.6 °F /  -18.7 °C -5.0 °F /  -20.6 °C 30.74in /  1040.9hPa Calm     85% 0.00in /  0mm 0 W/m2
19:18 -2.0 °F /  -18.9 °C -5.4 °F /  -20.8 °C 30.74in /  1040.9hPa Calm     85% 0.00in /  0mm 0 W/m2
19:24 -2.2 °F /  -19 °C -5.6 °F /  -20.9 °C 30.74in /  1040.9hPa Calm     85% 0.00in /  0mm 0 W/m2
19:30 -2.3 °F /  -19.1 °C -5.7 °F /  -20.9 °C 30.74in /  1040.9hPa Calm     85% 0.00in /  0mm 0 W/m2
19:36 -2.4 °F /  -19.1 °C -5.8 °F /  -21 °C 30.75in /  1041.2hPa Calm     85% 0.00in /  0mm 0 W/m2
19:42 -2.6 °F /  -19.2 °C -6.0 °F /  -21.1 °C 30.74in /  1040.9hPa Calm     85% 0.00in /  0mm 0 W/m2
19:48 -2.9 °F /  -19.4 °C -6.5 °F /  -21.4 °C 30.75in /  1041.2hPa Calm     84% 0.00in /  0mm 0 W/m2
19:54 -3.1 °F /  -19.5 °C -6.7 °F /  -21.5 °C 30.74in /  1040.9hPa Calm     84% 0.00in /  0mm 0 W/m2
20:00 -3.4 °F /  -19.7 °C -7.0 °F /  -21.7 °C 30.74in /  1040.9hPa Calm     84% 0.00in /  0mm 0 W/m2
20:06 -3.6 °F /  -19.8 °C -7.2 °F /  -21.8 °C 30.74in /  1040.9hPa Calm     84% 0.00in /  0mm 0 W/m2
20:18 -4.1 °F /  -20.1 °C -7.7 °F /  -22.1 °C 30.74in /  1040.9hPa Calm     84% 0.00in /  0mm 0 W/m2
20:26 -4.3 °F /  -20.2 °C -7.9 °F /  -22.2 °C 30.73in /  1040.5hPa Calm   1.0mph /  1.6km/h 84% 0.00in /  0mm 0 W/m2
20:36 -4.6 °F /  -20.3 °C -8.2 °F /  -22.3 °C 30.73in /  1040.5hPa Calm   1.0mph /  1.6km/h 84% 0.00in /  0mm 0 W/m2
20:42 -4.9 °F /  -20.5 °C -8.5 °F /  -22.5 °C 30.73in /  1040.5hPa Calm     84% 0.00in /  0mm 0 W/m2
20:52 -5.2 °F /  -20.7 °C -8.8 °F /  -22.7 °C 30.73in /  1040.5hPa Calm     84% 0.00in /  0mm 0 W/m2
20:58 -5.1 °F /  -20.6 °C -8.7 °F /  -22.6 °C 30.73in /  1040.5hPa Calm     84% 0.00in /  0mm 0 W/m2
21:04 -5.1 °F /  -20.6 °C -8.7 °F /  -22.6 °C 30.72in /  1040.2hPa Calm     84% 0.00in /  0mm 0 W/m2
21:10 -4.7 °F /  -20.4 °C -8.3 °F /  -22.4 °C 30.71in /  1039.8hPa East 1.0mph /  1.6km/h 1.0mph /  1.6km/h 84% 0.00in /  0mm 0 W/m2
21:16 -4.4 °F /  -20.2 °C -8.0 °F /  -22.2 °C 30.71in /  1039.8hPa Calm   1.0mph /  1.6km/h 84% 0.00in /  0mm 0 W/m2
21:22 -4.4 °F /  -20.2 °C -8.0 °F /  -22.2 °C 30.71in /  1039.8hPa Calm     84% 0.00in /  0mm 0 W/m2
21:28 -4.7 °F /  -20.4 °C -8.3 °F /  -22.4 °C 30.71in /  1039.8hPa Calm     84% 0.00in /  0mm 0 W/m2
21:34 -4.9 °F /  -20.5 °C -8.5 °F /  -22.5 °C 30.73in /  1040.5hPa Calm     84% 0.00in /  0mm 0 W/m2
21:40 -5.1 °F /  -20.6 °C -8.7 °F /  -22.6 °C 30.73in /  1040.5hPa Calm     84% 0.00in /  0mm 0 W/m2
21:52 -5.7 °F /  -20.9 °C -9.5 °F /  -23.1 °C 30.73in /  1040.5hPa Calm     83% 0.00in /  0mm 0 W/m2
21:58 -5.9 °F /  -21.1 °C -9.7 °F /  -23.2 °C 30.73in /  1040.5hPa Calm     83% 0.00in /  0mm 0 W/m2
22:06 -6.1 °F /  -21.2 °C -9.9 °F /  -23.3 °C 30.73in /  1040.5hPa Calm     83% 0.00in /  0mm 0 W/m2
22:12 -6.2 °F /  -21.2 °C -10.0 °F /  -23.3 °C 30.73in /  1040.5hPa Calm     83% 0.00in /  0mm 0 W/m2
22:18 -6.4 °F /  -21.3 °C -10.2 °F /  -23.4 °C 30.73in /  1040.5hPa Calm     83% 0.00in /  0mm 0 W/m2
22:24 -6.5 °F /  -21.4 °C -10.3 °F /  -23.5 °C 30.74in /  1040.9hPa Calm     83% 0.00in /  0mm 0 W/m2
22:30 -6.6 °F /  -21.4 °C -10.4 °F /  -23.6 °C 30.74in /  1040.9hPa Calm     83% 0.00in /  0mm 0 W/m2
22:36 -6.6 °F /  -21.4 °C -10.4 °F /  -23.6 °C 30.74in /  1040.9hPa Calm     83% 0.00in /  0mm 0 W/m2
22:42 -6.6 °F /  -21.4 °C -10.4 °F /  -23.6 °C 30.75in /  1041.2hPa Calm     83% 0.00in /  0mm 0 W/m2
22:48 -6.5 °F /  -21.4 °C -10.3 °F /  -23.5 °C 30.74in /  1040.9hPa Calm   1.0mph /  1.6km/h 83% 0.00in /  0mm 0 W/m2
22:54 -6.6 °F /  -21.4 °C -10.4 °F /  -23.6 °C 30.74in /  1040.9hPa Calm     83% 0.00in /  0mm 0 W/m2
23:00 -6.6 °F /  -21.4 °C -10.4 °F /  -23.6 °C 30.73in /  1040.5hPa Calm     83% 0.00in /  0mm 0 W/m2
23:06 -6.8 °F /  -21.6 °C -10.6 °F /  -23.7 °C 30.73in /  1040.5hPa Calm     83% 0.00in /  0mm 0 W/m2
23:16 -6.9 °F /  -21.6 °C -10.7 °F /  -23.7 °C 30.73in /  1040.5hPa Calm   1.0mph /  1.6km/h 83% 0.00in /  0mm 0 W/m2
23:22 -7.0 °F /  -21.7 °C -10.8 °F /  -23.8 °C 30.72in /  1040.2hPa Calm     83% 0.00in /  0mm 0 W/m2
23:28 -6.8 °F /  -21.6 °C -10.6 °F /  -23.7 °C 30.72in /  1040.2hPa Calm     83% 0.00in /  0mm 0 W/m2
23:34 -6.5 °F /  -21.4 °C -10.1 °F /  -23.4 °C 30.72in /  1040.2hPa Calm     84% 0.00in /  0mm 0 W/m2
23:40 -6.4 °F /  -21.3 °C -10.2 °F /  -23.4 °C 30.72in /  1040.2hPa Calm   1.0mph /  1.6km/h 83% 0.00in /  0mm 0 W/m2
23:46 -6.2 °F /  -21.2 °C -10.0 °F /  -23.3 °C 30.72in /  1040.2hPa Calm   1.0mph /  1.6km/h 83% 0.00in /  0mm 0 W/m2
23:52 -6.2 °F /  -21.2 °C -10.0 °F /  -23.3 °C 30.72in /  1040.2hPa Calm     83% 0.00in /  0mm 0 W/m2
23:58 -6.4 °F /  -21.3 °C -10.2 °F /  -23.4 °C 30.72in /  1040.2hPa Calm     83% 0.00in /  0mm 0 W/m2
Country Meadow, Clay, NY, USA
Compliments of Weather Underground - 2 mb